createdAt,value
2022-11-01T00:00:54.511Z,78
2022-11-01T00:03:53.991Z,76
2022-11-01T00:05:54.002Z,84
2022-11-01T00:08:54.010Z,74
2022-11-01T00:10:54.030Z,76
2022-11-01T00:13:53.988Z,76
2022-11-01T00:15:53.957Z,73
2022-11-01T00:17:53.997Z,79
2022-11-01T00:20:53.988Z,123
2022-11-01T00:22:54.084Z,105
2022-11-01T00:24:54.821Z,76
2022-11-01T00:26:54.158Z,86
2022-11-01T00:29:54.000Z,76
2022-11-01T00:32:55.003Z,77
2022-11-01T00:35:53.971Z,81
2022-11-01T00:37:53.999Z,77
2022-11-01T00:39:54.255Z,73
2022-11-01T00:42:53.993Z,94
2022-11-01T00:45:54.023Z,76
2022-11-01T00:48:54.083Z,68
2022-11-01T00:51:54.034Z,60
2022-11-01T00:54:54.006Z,64
2022-11-01T00:56:54.023Z,69
2022-11-01T01:01:54.071Z,64
2022-11-01T01:03:53.999Z,64
2022-11-01T01:06:54.002Z,65
2022-11-01T01:08:54.012Z,66
2022-11-01T01:11:53.991Z,64
2022-11-01T01:13:53.985Z,59
2022-11-01T01:15:54.031Z,60
2022-11-01T01:18:54.008Z,60
2022-11-01T01:21:53.995Z,80
2022-11-01T01:23:54.001Z,70
2022-11-01T01:25:54.079Z,62
2022-11-01T01:28:53.981Z,59
2022-11-01T01:30:54.017Z,63
2022-11-01T01:33:54.031Z,58
2022-11-01T01:36:54.034Z,59
2022-11-01T01:38:54.102Z,56
2022-11-01T01:41:53.990Z,57
2022-11-01T01:43:54.015Z,54
2022-11-01T01:46:54.271Z,60
2022-11-01T01:52:53.980Z,54
2022-11-01T01:54:54.034Z,59
2022-11-01T01:57:54.059Z,61
2022-11-01T02:00:54.045Z,61
2022-11-01T02:02:54.021Z,67
2022-11-01T02:08:54.059Z,61
2022-11-01T02:11:54.004Z,59
2022-11-01T02:14:04.290Z,55
2022-11-01T02:16:54.007Z,62
2022-11-01T02:19:07.692Z,59
2022-11-01T02:22:12.752Z,58
2022-11-01T02:24:16.169Z,65
2022-11-01T02:26:54.032Z,122
2022-11-01T02:29:54.016Z,92
2022-11-01T02:31:54.027Z,76
2022-11-01T02:34:05.991Z,89
2022-11-01T02:37:53.971Z,154
2022-11-01T02:39:54.023Z,120
2022-11-01T02:41:55.773Z,57
2022-11-01T02:44:54.016Z,70
2022-11-01T02:47:54.023Z,48
2022-11-01T02:49:54.010Z,54
2022-11-01T02:51:54.006Z,45
2022-11-01T02:54:08.515Z,64
2022-11-01T02:56:54.020Z,49
2022-11-01T02:58:54.009Z,35
2022-11-01T03:01:54.147Z,36
2022-11-01T03:04:54.021Z,36
2022-11-01T03:07:53.997Z,51
2022-11-01T03:10:54.005Z,57
2022-11-01T03:14:54.008Z,76
2022-11-01T03:18:54.027Z,62
2022-11-01T03:21:54.025Z,53
2022-11-01T03:24:54.022Z,52
2022-11-01T03:27:54.068Z,63
2022-11-01T03:30:54.012Z,64
2022-11-01T03:32:54.001Z,93
2022-11-01T03:35:54.027Z,81
2022-11-01T03:38:54.144Z,90
2022-11-01T03:41:54.015Z,71
2022-11-01T03:44:54.024Z,87
2022-11-01T03:47:54.024Z,68
2022-11-01T03:50:54.006Z,71
2022-11-01T03:52:54.010Z,83
2022-11-01T03:54:54.049Z,63
2022-11-01T03:58:54.011Z,72
2022-11-01T04:02:54.041Z,61
2022-11-01T04:06:54.025Z,44
2022-11-01T04:08:54.019Z,48
2022-11-01T04:10:54.030Z,62
2022-11-01T04:12:54.032Z,58
2022-11-01T04:15:54.000Z,46
2022-11-01T04:17:54.105Z,46
2022-11-01T04:20:54.061Z,32
2022-11-01T04:22:54.065Z,24
2022-11-01T04:25:54.033Z,26
2022-11-01T04:28:54.042Z,29
2022-11-01T04:30:54.087Z,29
2022-11-01T04:33:54.033Z,27
2022-11-01T04:37:54.053Z,30
2022-11-01T04:40:54.031Z,22
2022-11-01T04:42:54.015Z,29
2022-11-01T04:44:54.028Z,21
2022-11-01T04:46:54.020Z,35
2022-11-01T04:49:54.034Z,22
2022-11-01T04:52:54.108Z,22
2022-11-01T04:55:54.062Z,20
2022-11-01T04:58:54.037Z,23
2022-11-01T05:01:54.153Z,31
2022-11-01T05:04:54.035Z,38
2022-11-01T05:07:54.073Z,44
2022-11-01T05:09:54.040Z,52
2022-11-01T05:12:54.037Z,61
2022-11-01T05:14:55.826Z,54
2022-11-01T05:17:54.044Z,56
2022-11-01T05:19:54.055Z,60
2022-11-01T05:21:54.060Z,55
2022-11-01T05:24:54.019Z,59
2022-11-01T05:27:54.022Z,48
2022-11-01T05:29:54.038Z,54
2022-11-01T05:31:54.132Z,55
2022-11-01T05:34:54.044Z,61
2022-11-01T05:36:54.023Z,59
2022-11-01T05:39:54.054Z,62
2022-11-01T05:41:55.532Z,63
2022-11-01T05:44:54.042Z,68
2022-11-01T05:46:54.038Z,82
2022-11-01T05:48:54.034Z,83
2022-11-01T05:51:54.052Z,74
2022-11-01T05:53:54.039Z,75
2022-11-01T05:56:54.048Z,62
2022-11-01T05:59:54.054Z,70
2022-11-01T06:02:54.068Z,76
2022-11-01T06:05:54.058Z,74
2022-11-01T06:08:54.100Z,70
2022-11-01T06:11:54.060Z,61
2022-11-01T06:14:54.049Z,59
2022-11-01T06:16:54.102Z,61
2022-11-01T06:19:54.116Z,61
2022-11-01T06:22:54.107Z,58
2022-11-01T06:24:54.117Z,53
2022-11-01T06:27:54.104Z,56
2022-11-01T06:29:54.107Z,58
2022-11-01T06:32:54.104Z,44
2022-11-01T06:35:54.116Z,44
2022-11-01T06:37:54.095Z,46
2022-11-01T06:40:54.119Z,38
2022-11-01T06:44:04.392Z,49
2022-11-01T06:46:54.107Z,40
2022-11-01T06:48:57.471Z,44
2022-11-01T06:51:54.111Z,34
2022-11-01T06:54:54.114Z,41
2022-11-01T06:57:54.143Z,30
2022-11-01T07:00:54.153Z,33
2022-11-01T07:03:54.100Z,39
2022-11-01T07:05:54.098Z,32
2022-11-01T07:07:54.107Z,37
2022-11-01T07:10:54.108Z,35
2022-11-01T07:13:54.119Z,35
2022-11-01T07:16:54.096Z,37
2022-11-01T07:19:54.094Z,33
2022-11-01T07:21:54.125Z,32
2022-11-01T07:24:54.119Z,27
2022-11-01T07:26:54.107Z,33
2022-11-01T07:29:54.107Z,30
2022-11-01T07:31:54.115Z,34
2022-11-01T07:34:54.132Z,31
2022-11-01T07:37:54.110Z,31
2022-11-01T07:39:54.106Z,32
2022-11-01T07:42:54.109Z,33
2022-11-01T07:45:54.116Z,27
2022-11-01T07:47:54.126Z,32
2022-11-01T07:50:54.134Z,29
2022-11-01T07:53:54.179Z,29
2022-11-01T07:55:54.160Z,27
2022-11-01T07:58:54.129Z,27
2022-11-01T08:01:54.265Z,27
2022-11-01T08:03:54.149Z,29
2022-11-01T08:06:04.407Z,27
2022-11-01T08:08:54.126Z,30
2022-11-01T08:10:54.128Z,29
2022-11-01T08:12:54.147Z,34
2022-11-01T08:16:55.184Z,29
2022-11-01T08:19:54.136Z,30
2022-11-01T08:21:54.135Z,35
2022-11-01T08:24:54.135Z,31
2022-11-01T08:26:54.207Z,32
2022-11-01T08:29:54.110Z,27
2022-11-01T08:31:54.225Z,29
2022-11-01T08:34:54.146Z,34
2022-11-01T08:37:54.153Z,34
2022-11-01T08:39:54.151Z,31
2022-11-01T08:42:54.112Z,31
2022-11-01T08:44:54.125Z,36
2022-11-01T08:46:54.114Z,32
2022-11-01T08:49:54.155Z,22
2022-11-01T08:51:54.118Z,13
2022-11-01T08:54:58.985Z,21
2022-11-01T08:57:54.131Z,15
2022-11-01T08:59:54.145Z,13
2022-11-01T09:01:54.237Z,10
2022-11-01T09:03:54.153Z,10
2022-11-01T09:06:04.429Z,10
2022-11-01T09:08:54.116Z,11
2022-11-01T09:10:54.150Z,13
2022-11-01T09:13:54.120Z,14
2022-11-01T09:15:56.271Z,12
2022-11-01T09:18:54.117Z,16
2022-11-01T09:20:54.147Z,13
2022-11-01T09:23:54.130Z,13
2022-11-01T09:25:54.134Z,9
2022-11-01T09:28:54.116Z,11
2022-11-01T09:31:01.211Z,10
2022-11-01T09:33:54.127Z,15
2022-11-01T09:36:54.133Z,19
2022-11-01T09:39:54.118Z,10
2022-11-01T09:42:57.886Z,9
2022-11-01T09:44:54.150Z,9
2022-11-01T09:47:54.136Z,11
2022-11-01T09:50:54.136Z,10
2022-11-01T09:52:54.135Z,10
2022-11-01T09:54:56.772Z,13
2022-11-01T09:57:54.118Z,9
2022-11-01T09:59:54.140Z,8
2022-11-01T10:02:54.148Z,10
2022-11-01T10:05:54.172Z,11
2022-11-01T10:08:54.143Z,8
2022-11-01T10:10:54.168Z,10
2022-11-01T10:14:54.146Z,9
2022-11-01T10:16:54.165Z,8
2022-11-01T10:19:54.217Z,7
2022-11-01T10:22:54.141Z,10
2022-11-01T10:25:54.153Z,8
2022-11-01T10:27:54.175Z,8
2022-11-01T10:30:54.180Z,8
2022-11-01T10:32:54.212Z,7
2022-11-01T10:35:54.153Z,9
2022-11-01T10:38:03.850Z,10
2022-11-01T10:40:54.177Z,11
2022-11-01T10:43:54.177Z,11
2022-11-01T10:45:54.165Z,8
2022-11-01T10:47:54.162Z,7
2022-11-01T10:50:54.176Z,8
2022-11-01T10:52:54.160Z,13
2022-11-01T10:54:54.166Z,11
2022-11-01T10:56:54.167Z,7
2022-11-01T10:59:54.164Z,8
2022-11-01T11:02:54.239Z,7
2022-11-01T11:05:54.176Z,8
2022-11-01T11:08:54.154Z,8
2022-11-01T11:10:54.198Z,10
2022-11-01T11:13:54.160Z,7
2022-11-01T11:15:54.161Z,9
2022-11-01T11:18:54.183Z,8
2022-11-01T11:20:54.160Z,8
2022-11-01T11:22:54.167Z,6
2022-11-01T11:25:54.183Z,6
2022-11-01T11:28:54.169Z,7
2022-11-01T11:30:54.199Z,7
2022-11-01T11:32:54.154Z,9
2022-11-01T11:34:54.174Z,7
2022-11-01T11:37:54.154Z,9
2022-11-01T11:40:54.148Z,8
2022-11-01T11:42:54.163Z,8
2022-11-01T11:45:54.146Z,8
2022-11-01T11:47:54.154Z,8
2022-11-01T11:50:54.157Z,8
2022-11-01T11:52:54.151Z,8
2022-11-01T11:54:54.163Z,10
2022-11-01T11:57:54.140Z,11
2022-11-01T11:59:54.146Z,8
2022-11-01T12:01:54.345Z,8
2022-11-01T12:04:54.144Z,7
2022-11-01T12:07:54.157Z,8
2022-11-01T12:09:54.165Z,6
2022-11-01T12:12:54.159Z,8
2022-11-01T12:14:54.171Z,7
2022-11-01T12:16:54.177Z,9
2022-11-01T12:19:54.163Z,7
2022-11-01T12:22:54.164Z,6
2022-11-01T12:24:54.160Z,8
2022-11-01T12:27:54.176Z,8
2022-11-01T12:29:54.187Z,8
2022-11-01T12:32:54.168Z,7
2022-11-01T12:39:14.719Z,8
2022-11-01T12:41:54.166Z,9
2022-11-01T12:43:57.557Z,10
2022-11-01T12:46:54.187Z,9
2022-11-01T12:49:54.190Z,10
2022-11-01T12:51:54.267Z,8
2022-11-01T12:54:54.174Z,8
2022-11-01T12:56:54.181Z,8
2022-11-01T12:59:54.206Z,9
2022-11-01T13:01:54.291Z,13
2022-11-01T13:04:54.233Z,8
2022-11-01T13:07:54.191Z,7
2022-11-01T13:10:54.194Z,7
2022-11-01T13:13:54.171Z,10
2022-11-01T13:16:54.164Z,10
2022-11-01T13:20:54.200Z,12
2022-11-01T13:23:04.962Z,7
2022-11-01T13:25:54.164Z,8
2022-11-01T13:27:54.194Z,7
2022-11-01T13:29:54.192Z,8
2022-11-01T13:31:54.302Z,12
2022-11-01T13:34:54.209Z,8
2022-11-01T13:36:54.200Z,11
2022-11-01T13:39:54.199Z,9
2022-11-01T13:42:54.223Z,9
2022-11-01T13:45:54.192Z,8
2022-11-01T13:47:54.214Z,8
2022-11-01T13:50:54.218Z,11
2022-11-01T13:52:54.224Z,8
2022-11-01T13:54:54.194Z,8
2022-11-01T13:57:54.197Z,10
2022-11-01T13:59:54.205Z,7
2022-11-01T14:02:54.235Z,9
2022-11-01T14:05:54.210Z,5
2022-11-01T14:07:54.210Z,8
2022-11-01T14:10:54.220Z,13
2022-11-01T14:12:54.223Z,8
2022-11-01T14:15:54.308Z,9
2022-11-01T14:18:54.219Z,7
2022-11-01T14:21:54.215Z,14
2022-11-01T14:23:54.262Z,8
2022-11-01T14:26:54.213Z,10
2022-11-01T14:28:54.222Z,10
2022-11-01T14:31:54.225Z,7
2022-11-01T14:34:54.215Z,9
2022-11-01T14:37:54.267Z,10
2022-11-01T14:40:54.200Z,7
2022-11-01T14:43:54.282Z,9
2022-11-01T14:46:04.494Z,8
2022-11-01T14:48:54.236Z,11
2022-11-01T14:50:54.225Z,8
2022-11-01T14:52:54.257Z,9
2022-11-01T14:56:54.257Z,10
2022-11-01T14:59:54.233Z,8
2022-11-01T15:02:04.614Z,6
2022-11-01T15:04:54.248Z,10
2022-11-01T15:07:54.222Z,10
2022-11-01T15:10:54.404Z,8
2022-11-01T15:13:54.230Z,8
2022-11-01T15:15:54.245Z,8
2022-11-01T15:17:54.263Z,13
2022-11-01T15:19:57.631Z,9
2022-11-01T15:22:54.255Z,10
2022-11-01T15:25:54.218Z,11
2022-11-01T15:27:54.228Z,9
2022-11-01T15:30:54.235Z,12
2022-11-01T15:32:54.254Z,11
2022-11-01T15:35:04.519Z,9
2022-11-01T15:37:54.220Z,11
2022-11-01T15:39:54.291Z,10
2022-11-01T15:42:54.307Z,12
2022-11-01T15:45:54.242Z,11
2022-11-01T15:49:01.415Z,11
2022-11-01T15:51:54.220Z,9
2022-11-01T15:53:54.274Z,10
2022-11-01T15:57:04.502Z,10
2022-11-01T16:00:54.336Z,9
2022-11-01T16:03:54.245Z,13
2022-11-01T16:07:01.052Z,12
2022-11-01T16:09:54.250Z,12
2022-11-01T16:12:54.243Z,10
2022-11-01T16:15:54.269Z,12
2022-11-01T16:18:54.285Z,14
2022-11-01T16:21:54.253Z,12
2022-11-01T16:23:54.247Z,15
2022-11-01T16:26:54.253Z,11
2022-11-01T16:29:54.219Z,10
2022-11-01T16:31:54.289Z,11
2022-11-01T16:34:54.230Z,9
2022-11-01T16:37:54.243Z,14
2022-11-01T16:40:54.242Z,13
2022-11-01T16:42:54.233Z,12
2022-11-01T16:45:54.242Z,25
2022-11-01T16:48:54.198Z,24
2022-11-01T16:50:54.226Z,25
2022-11-01T16:52:54.220Z,26
2022-11-01T16:55:57.930Z,25
2022-11-01T16:57:54.254Z,27
2022-11-01T16:59:54.334Z,32
2022-11-01T17:03:54.290Z,26
2022-11-01T17:06:58.027Z,28
2022-11-01T17:09:54.267Z,29
2022-11-01T17:12:54.272Z,24
2022-11-01T17:14:54.248Z,31
2022-11-01T17:17:54.292Z,28
2022-11-01T17:20:54.272Z,21
2022-11-01T17:23:54.280Z,19
2022-11-01T17:26:54.270Z,24
2022-11-01T17:28:54.284Z,17
2022-11-01T17:31:54.230Z,28
2022-11-01T17:34:54.251Z,34
2022-11-01T17:36:54.268Z,38
2022-11-01T17:38:54.264Z,37
2022-11-01T17:40:54.269Z,41
2022-11-01T17:43:54.249Z,39
2022-11-01T17:45:54.265Z,36
2022-11-01T17:48:54.267Z,39
2022-11-01T17:50:54.247Z,32
2022-11-01T17:52:54.327Z,29
2022-11-01T17:55:54.281Z,23
2022-11-01T17:58:54.239Z,9
2022-11-01T18:00:54.347Z,13
2022-11-01T18:03:54.259Z,10
2022-11-01T18:05:54.270Z,14
2022-11-01T18:07:54.269Z,12
2022-11-01T18:09:54.314Z,13
2022-11-01T18:12:54.244Z,9
2022-11-01T18:14:54.301Z,12
2022-11-01T18:17:54.276Z,10
2022-11-01T18:20:54.256Z,9
2022-11-01T18:22:55.339Z,8
2022-11-01T18:25:54.254Z,9
2022-11-01T18:27:54.288Z,18
2022-11-01T18:30:54.267Z,9
2022-11-01T18:32:54.305Z,12
2022-11-01T18:35:54.276Z,10
2022-11-01T18:37:54.299Z,9
2022-11-01T18:39:54.300Z,7
2022-11-01T18:42:54.312Z,10
2022-11-01T18:44:54.292Z,8
2022-11-01T18:47:54.288Z,10
2022-11-01T18:49:54.287Z,9
2022-11-01T18:51:54.290Z,9
2022-11-01T18:54:56.820Z,9
2022-11-01T18:57:54.274Z,11
2022-11-01T19:00:54.319Z,11
2022-11-01T19:03:54.267Z,15
2022-11-01T19:05:54.297Z,13
2022-11-01T19:08:54.312Z,12
2022-11-01T19:11:54.287Z,12
2022-11-01T19:13:54.320Z,9
2022-11-01T19:16:54.271Z,14
2022-11-01T19:18:54.281Z,13
2022-11-01T19:21:54.293Z,10
2022-11-01T19:23:54.283Z,11
2022-11-01T19:26:54.284Z,11
2022-11-01T19:29:57.830Z,14
2022-11-01T19:33:54.298Z,17
2022-11-01T19:35:54.408Z,15
2022-11-01T19:38:54.295Z,13
2022-11-01T19:41:54.275Z,15
2022-11-01T19:44:54.287Z,12
2022-11-01T19:47:54.286Z,15
2022-11-01T19:49:54.315Z,19
2022-11-01T19:51:54.320Z,21
2022-11-01T19:54:54.281Z,25
2022-11-01T19:56:54.281Z,23
2022-11-01T19:59:54.300Z,22
2022-11-01T20:02:54.267Z,23
2022-11-01T20:04:56.000Z,28
2022-11-01T20:07:57.335Z,28
2022-11-01T20:09:58.360Z,27
2022-11-01T20:11:54.274Z,30
2022-11-01T20:13:54.281Z,30
2022-11-01T20:15:54.313Z,24
2022-11-01T20:17:54.301Z,27
2022-11-01T20:20:54.286Z,29
2022-11-01T20:23:54.280Z,33
2022-11-01T20:25:54.326Z,29
2022-11-01T20:29:04.576Z,33
2022-11-01T20:31:54.325Z,31
2022-11-01T20:33:54.302Z,27
2022-11-01T20:37:22.500Z,35
2022-11-01T20:38:54.286Z,23
2022-11-01T20:41:54.301Z,27
2022-11-01T20:43:54.311Z,26
2022-11-01T20:46:54.302Z,27
2022-11-01T20:48:54.297Z,29
2022-11-01T20:51:55.684Z,31
2022-11-01T20:54:54.297Z,30
2022-11-01T20:56:54.311Z,31
2022-11-01T20:59:54.317Z,29
2022-11-01T21:02:54.330Z,34
2022-11-01T21:05:54.290Z,38
2022-11-01T21:07:54.329Z,36
2022-11-01T21:10:54.323Z,30
2022-11-01T21:13:54.306Z,31
2022-11-01T21:16:54.332Z,35
2022-11-01T21:18:54.371Z,33
2022-11-01T21:21:54.350Z,36
2022-11-01T21:24:54.319Z,38
2022-11-01T21:27:54.317Z,34
2022-11-01T21:29:54.393Z,36
2022-11-01T21:32:54.327Z,28
2022-11-01T21:35:54.577Z,30
2022-11-01T21:38:54.316Z,27
2022-11-01T21:41:54.315Z,33
2022-11-01T21:43:54.322Z,28
2022-11-01T21:46:54.297Z,24
2022-11-01T21:49:54.305Z,27
2022-11-01T21:51:54.446Z,27
2022-11-01T21:55:54.326Z,24
2022-11-01T21:58:54.303Z,26
2022-11-01T22:00:54.336Z,32
2022-11-01T22:03:54.320Z,27
2022-11-01T22:06:54.304Z,29
2022-11-01T22:09:54.318Z,27
2022-11-01T22:12:54.293Z,31
2022-11-01T22:15:54.303Z,26
2022-11-01T22:17:54.329Z,29
2022-11-01T22:20:54.323Z,25
2022-11-01T22:23:54.322Z,26
2022-11-01T22:26:54.306Z,22
2022-11-01T22:28:54.311Z,24
2022-11-01T22:31:54.352Z,29
2022-11-01T22:34:54.339Z,34
2022-11-01T22:36:54.326Z,25
2022-11-01T22:39:54.319Z,22
2022-11-01T22:41:54.342Z,24
2022-11-01T22:44:54.357Z,23
2022-11-01T22:47:54.307Z,23
2022-11-01T22:50:54.321Z,26
2022-11-01T22:54:54.331Z,21
2022-11-01T22:57:54.341Z,21
2022-11-01T23:00:54.407Z,23
2022-11-01T23:02:54.456Z,25
2022-11-01T23:05:54.318Z,21
2022-11-01T23:08:57.386Z,24
2022-11-01T23:11:54.320Z,22
2022-11-01T23:13:54.342Z,23
2022-11-01T23:15:54.330Z,22
2022-11-01T23:18:54.314Z,26
2022-11-01T23:20:54.327Z,27
2022-11-01T23:23:54.325Z,25
2022-11-01T23:25:54.349Z,36
2022-11-01T23:27:54.348Z,29
2022-11-01T23:30:54.338Z,28
2022-11-01T23:33:54.335Z,29
2022-11-01T23:35:54.373Z,28
2022-11-01T23:37:55.954Z,26
2022-11-01T23:40:54.338Z,31
2022-11-01T23:43:54.338Z,26
2022-11-01T23:46:54.304Z,28
2022-11-01T23:48:54.347Z,32
2022-11-01T23:51:54.332Z,28
2022-11-01T23:53:54.319Z,28
2022-11-01T23:56:54.358Z,31
2022-11-01T23:58:54.334Z,30
